Catherine Desgagnes — VOWN — position and weather

sailwx.info

Track history (hours):
 
Tides and Currents Weather Stations Pressure Air Temp Water Temp Dewpoint Dewpoint Depression Visibility Wind Speed Wind Dir Waves Ship Positions

Catherine Desgagnes

Last reported at 2014-Aug-01 14:12 UTC. Time now 2014-Aug-02 04:42 UTC.
Position N 42°32' W 079°48'.

Length 125 m; draft 4.9 m.

Type: Ship. MMSI: 316001203.

Date/timePositionNaut miles runAvg speedWind from/ knotsBaromVisibWave heightAir tempDewpointWater temp
2014-Aug-01 14:12N 42°32' W 079°48'4 0.1
2014-Jul-30 21:24N 42°36' W 079°50'168 5.2
2014-Jul-29 13:18N 44°00' W 076°30'1012.9
2014-Jul-29 12:31N 44°08' W 076°21'105 8.1
2014-Jul-28 23:33N 45°10' W 074°21'1110.8
2014-Jul-28 22:33N 45°14' W 074°07'9 8.9
2014-Jul-28 21:33N 45°18' W 073°56'1 1.3
2014-Jul-28 20:34N 45°19' W 073°55'2 2.3
2014-Jul-28 19:33N 45°21' W 073°53'8 6.3
2014-Jul-28 18:18N 45°25' W 073°43'6 6.3
2014-Jul-28 17:21N 45°24' W 073°34'1 1.1
2014-Jul-28 16:33N 45°24' W 073°33'4 4.2
2014-Jul-28 15:33N 45°28' W 073°30'2 1.5
2014-Jul-28 14:33N 45°30' W 073°31'2 1.7
2014-Jul-28 13:33N 45°31' W 073°32'5 5.2
2014-Jul-28 12:33N 45°37' W 073°30'7 6.7
2014-Jul-28 11:33N 45°43' W 073°26'8 7.5
2014-Jul-28 10:33N 45°48' W 073°19'1010.0
2014-Jul-28 09:33N 45°57' W 073°13'3110.4
2014-Jul-28 06:34N 46°16' W 072°37'1110.7
2014-Jul-28 05:33N 46°23' W 072°25'1110.6
2014-Jul-28 04:33N 46°30' W 072°14'  
2014-Jul-25 05:30N 47°21' W 052°35'1313.6
2014-Jul-25 04:31N 47°34' W 052°34'  
Track history (hours):
 
Tides and Currents Weather Stations Pressure Air Temp Water Temp Dewpoint Dewpoint Depression Visibility Wind Speed Wind Dir Waves Ship Positions

Catherine Desgagnes

Last reported at 2014-Aug-01 14:12 UTC. Time now 2014-Aug-02 04:42 UTC.
Position N 42°32' W 079°48'.

Length 125 m; draft 4.9 m.

Type: Ship. MMSI: 316001203.

Date/timePositionNaut miles runAvg speedWind from/ knotsBaromVisibWave heightAir tempDewpointWater temp
2014-Aug-01 14:12N 42°32' W 079°48'4 0.1
2014-Jul-30 21:24N 42°36' W 079°50'168 5.2
2014-Jul-29 13:18N 44°00' W 076°30'1012.9
2014-Jul-29 12:31N 44°08' W 076°21'105 8.1
2014-Jul-28 23:33N 45°10' W 074°21'1110.8
2014-Jul-28 22:33N 45°14' W 074°07'9 8.9
2014-Jul-28 21:33N 45°18' W 073°56'1 1.3
2014-Jul-28 20:34N 45°19' W 073°55'2 2.3
2014-Jul-28 19:33N 45°21' W 073°53'8 6.3
2014-Jul-28 18:18N 45°25' W 073°43'6 6.3
2014-Jul-28 17:21N 45°24' W 073°34'1 1.1
2014-Jul-28 16:33N 45°24' W 073°33'4 4.2
2014-Jul-28 15:33N 45°28' W 073°30'2 1.5
2014-Jul-28 14:33N 45°30' W 073°31'2 1.7
2014-Jul-28 13:33N 45°31' W 073°32'5 5.2
2014-Jul-28 12:33N 45°37' W 073°30'7 6.7
2014-Jul-28 11:33N 45°43' W 073°26'8 7.5
2014-Jul-28 10:33N 45°48' W 073°19'1010.0
2014-Jul-28 09:33N 45°57' W 073°13'3110.4
2014-Jul-28 06:34N 46°16' W 072°37'1110.7
2014-Jul-28 05:33N 46°23' W 072°25'1110.6
2014-Jul-28 04:33N 46°30' W 072°14'  
2014-Jul-25 05:30N 47°21' W 052°35'1313.6
2014-Jul-25 04:31N 47°34' W 052°34'  

Dump ship's entire track history